Time;durP1;ratioP1;P1;durP2;ratioP2;P2;SDS_P1;SDS_P2;PMS_P1;PMS_P2;Temp;Humidity;BMP_temperature;BMP_pressure;BME280_temperature;BME280_humidity;BME280_pressure;Samples;Min_cycle;Max_cycle;Signal;HPM_P1;HPM_P2
2023/12/12 00:01:23;;;;;;;19.60;10.13;;;8.40;99.90;;;;;;5113238;28;20471;-69
2023/12/12 00:03:50;;;;;;;21.03;10.50;;;8.40;99.90;;;;;;5113184;28;20024;-64
2023/12/12 00:06:16;;;;;;;20.87;11.10;;;8.40;99.90;;;;;;5113274;28;20056;-64
2023/12/12 00:08:42;;;;;;;16.70;11.00;;;8.40;99.90;;;;;;5113366;28;20023;-64
2023/12/12 00:11:08;;;;;;;17.37;11.17;;;8.40;99.90;;;;;;5112953;28;20031;-64
2023/12/12 00:13:33;;;;;;;22.50;12.07;;;8.40;99.90;;;;;;5112647;28;20432;-64
2023/12/12 00:15:59;;;;;;;18.87;11.90;;;8.40;99.90;;;;;;5115060;28;20039;-64
2023/12/12 00:18:25;;;;;;;16.93;11.47;;;8.30;99.90;;;;;;5116766;28;20062;-64
2023/12/12 00:20:51;;;;;;;20.17;11.50;;;8.30;99.90;;;;;;5116802;28;20129;-64
2023/12/12 00:23:16;;;;;;;15.80;10.87;;;8.30;99.90;;;;;;5117338;28;20020;-64
2023/12/12 00:25:42;;;;;;;18.20;10.53;;;8.30;99.90;;;;;;5117067;28;20038;-63
2023/12/12 00:28:08;;;;;;;18.23;10.43;;;8.30;99.90;;;;;;5116865;28;20030;-64
2023/12/12 00:30:33;;;;;;;17.27;9.60;;;8.30;99.90;;;;;;5117035;28;20106;-64
2023/12/12 00:32:59;;;;;;;15.10;8.93;;;8.30;99.90;;;;;;5116750;28;20027;-64
2023/12/12 00:35:25;;;;;;;17.70;8.77;;;8.30;99.90;;;;;;5114003;28;20327;-64
2023/12/12 00:37:50;;;;;;;16.43;9.23;;;8.20;99.90;;;;;;5116596;28;20028;-64
2023/12/12 00:40:16;;;;;;;20.90;9.27;;;8.20;99.90;;;;;;5116515;28;20472;-64
2023/12/12 00:42:42;;;;;;;14.47;8.37;;;8.20;99.90;;;;;;5116561;28;20391;-64
2023/12/12 00:45:08;;;;;;;15.10;8.07;;;8.20;99.90;;;;;;5116413;28;20028;-65
2023/12/12 00:47:34;;;;;;;15.10;7.80;;;8.20;99.90;;;;;;5116573;28;20042;-64
2023/12/12 00:50:00;;;;;;;18.63;8.70;;;8.20;99.90;;;;;;5116520;28;20032;-64
2023/12/12 00:52:26;;;;;;;15.27;7.97;;;8.20;99.90;;;;;;5116405;28;20459;-64
2023/12/12 00:54:51;;;;;;;14.23;8.47;;;8.20;99.90;;;;;;5116273;28;20058;-65
2023/12/12 00:57:17;;;;;;;16.07;10.20;;;8.20;99.90;;;;;;5115983;28;20028;-65
2023/12/12 00:59:42;;;;;;;17.90;10.47;;;8.20;99.90;;;;;;5116324;28;20034;-65
2023/12/12 01:02:08;;;;;;;15.20;7.80;;;8.30;99.90;;;;;;5097721;28;20106;-66
2023/12/12 01:04:34;;;;;;;19.10;7.67;;;8.20;99.90;;;;;;5115952;28;20024;-65
2023/12/12 01:07:01;;;;;;;12.87;6.47;;;8.20;99.90;;;;;;5115914;28;20035;-68
2023/12/12 01:09:28;;;;;;;13.67;7.40;;;8.20;99.90;;;;;;5116278;28;20178;-64
2023/12/12 01:11:53;;;;;;;15.27;6.93;;;8.20;99.90;;;;;;5116113;28;20060;-66
2023/12/12 01:14:19;;;;;;;13.27;7.37;;;8.20;99.90;;;;;;5115897;28;20138;-65
2023/12/12 01:16:45;;;;;;;13.73;7.20;;;8.30;99.90;;;;;;5116096;28;20027;-64
2023/12/12 01:19:11;;;;;;;13.10;8.10;;;8.30;99.90;;;;;;5115794;28;20027;-64
2023/12/12 01:21:37;;;;;;;12.40;7.37;;;8.30;99.90;;;;;;5115759;28;20020;-63
2023/12/12 01:24:02;;;;;;;12.33;6.70;;;8.30;99.90;;;;;;5116237;28;20024;-64
2023/12/12 01:26:28;;;;;;;13.83;6.90;;;8.30;99.90;;;;;;5115401;28;20027;-65
2023/12/12 01:28:54;;;;;;;10.63;6.00;;;8.30;99.90;;;;;;5115699;28;20055;-65
2023/12/12 01:31:20;;;;;;;11.43;6.80;;;8.30;99.90;;;;;;5115486;28;20076;-66
2023/12/12 01:33:47;;;;;;;11.03;6.07;;;8.30;99.90;;;;;;5115436;28;20042;-65
2023/12/12 01:36:13;;;;;;;11.70;5.90;;;8.30;99.90;;;;;;5115724;28;20023;-66
2023/12/12 01:38:39;;;;;;;11.00;5.80;;;8.30;99.90;;;;;;5115520;28;20043;-68
2023/12/12 01:41:04;;;;;;;12.00;5.83;;;8.30;99.90;;;;;;5115569;28;20020;-64
2023/12/12 01:43:32;;;;;;;16.63;6.20;;;8.30;99.90;;;;;;5115344;28;20441;-66
2023/12/12 01:46:02;;;;;;;13.53;5.87;;;8.40;99.90;;;;;;5115621;28;20379;-65
2023/12/12 01:48:29;;;;;;;11.60;5.17;;;8.30;99.90;;;;;;5115416;28;20027;-66
2023/12/12 01:50:56;;;;;;;8.17;5.00;;;8.40;99.90;;;;;;5115379;28;20027;-63
2023/12/12 01:53:36;;;;;;;11.60;5.03;;;8.40;99.90;;;;;;5114993;28;20027;-65
2023/12/12 01:56:02;;;;;;;14.63;5.37;;;8.40;99.90;;;;;;5115065;28;20024;-65
2023/12/12 01:58:28;;;;;;;13.30;5.50;;;8.40;99.90;;;;;;5113012;28;20032;-64
2023/12/12 02:00:55;;;;;;;9.90;5.10;;;8.40;99.90;;;;;;5112260;28;20039;-65
2023/12/12 02:03:26;;;;;;;9.83;5.23;;;8.40;99.90;;;;;;5112428;28;20027;-65
2023/12/12 02:05:57;;;;;;;11.50;5.23;;;8.40;99.90;;;;;;5114725;28;20031;-66
2023/12/12 02:08:25;;;;;;;10.40;5.37;;;8.40;99.90;;;;;;5096591;28;20028;-65
2023/12/12 02:10:51;;;;;;;9.63;4.73;;;8.40;99.90;;;;;;5114768;28;20069;-66
2023/12/12 02:13:17;;;;;;;12.00;5.40;;;8.40;99.90;;;;;;5114407;28;20019;-66
2023/12/12 02:15:43;;;;;;;11.77;5.63;;;8.40;99.90;;;;;;5114774;28;20064;-65
2023/12/12 02:18:09;;;;;;;8.53;4.87;;;8.40;99.90;;;;;;5114596;28;20440;-63
2023/12/12 02:20:35;;;;;;;13.13;4.93;;;8.40;99.90;;;;;;5114341;28;20062;-68
2023/12/12 02:23:00;;;;;;;10.13;4.87;;;8.40;99.90;;;;;;5114782;28;20024;-64
2023/12/12 02:25:27;;;;;;;13.57;5.30;;;8.40;99.90;;;;;;5114561;28;20471;-64
2023/12/12 02:27:52;;;;;;;7.40;4.90;;;8.40;99.90;;;;;;5112768;28;20027;-64
2023/12/12 02:30:18;;;;;;;7.83;4.67;;;8.40;99.90;;;;;;5114081;28;20107;-65
2023/12/12 02:32:44;;;;;;;12.37;5.57;;;8.40;99.90;;;;;;5114128;28;20031;-69
2023/12/12 02:35:10;;;;;;;12.03;5.43;;;8.40;99.90;;;;;;5113697;28;20429;-65
2023/12/12 02:37:35;;;;;;;11.03;4.77;;;8.40;99.90;;;;;;5113426;28;20024;-68
2023/12/12 02:40:01;;;;;;;8.17;5.07;;;8.40;99.90;;;;;;5113531;28;20024;-65
2023/12/12 02:42:27;;;;;;;11.37;5.57;;;8.40;99.90;;;;;;5114146;28;20024;-66
2023/12/12 02:44:52;;;;;;;9.10;5.23;;;8.40;99.90;;;;;;5114721;28;20111;-65
2023/12/12 02:47:20;;;;;;;13.10;5.53;;;8.40;99.90;;;;;;5114347;28;20028;-64
2023/12/12 02:49:46;;;;;;;12.00;4.97;;;8.50;99.90;;;;;;5114145;28;20059;-65
2023/12/12 02:52:11;;;;;;;9.33;4.83;;;8.50;99.90;;;;;;5114075;28;20109;-65
2023/12/12 02:54:37;;;;;;;9.73;4.53;;;8.50;99.90;;;;;;5113981;28;20047;-64
2023/12/12 02:57:03;;;;;;;9.27;5.10;;;8.50;99.90;;;;;;5113774;28;20019;-63
2023/12/12 02:59:29;;;;;;;10.37;5.17;;;8.50;99.90;;;;;;5114018;28;20027;-64
2023/12/12 03:01:54;;;;;;;10.67;4.93;;;8.50;99.90;;;;;;5113549;28;20102;-65
2023/12/12 03:04:20;;;;;;;14.90;5.20;;;8.50;99.90;;;;;;5113960;28;20450;-63
2023/12/12 03:06:46;;;;;;;8.70;4.43;;;8.50;99.90;;;;;;5113654;28;20352;-66
2023/12/12 03:09:11;;;;;;;7.70;4.40;;;8.50;99.90;;;;;;5113412;28;20030;-64
2023/12/12 03:11:37;;;;;;;9.57;4.63;;;8.50;99.90;;;;;;5113583;28;20098;-64
2023/12/12 03:14:03;;;;;;;10.27;4.80;;;8.50;99.90;;;;;;5113601;28;20039;-63
2023/12/12 03:16:28;;;;;;;10.87;4.60;;;8.50;99.90;;;;;;5113690;28;20019;-64
2023/12/12 03:18:54;;;;;;;9.03;4.27;;;8.50;99.90;;;;;;5113573;28;20399;-64
2023/12/12 03:21:19;;;;;;;7.20;4.43;;;8.60;99.90;;;;;;5113397;28;20024;-65
2023/12/12 03:23:48;;;;;;;10.27;4.40;;;8.50;99.90;;;;;;5113600;28;20023;-64
2023/12/12 03:26:14;;;;;;;10.10;4.30;;;8.50;99.90;;;;;;5113526;28;20027;-65
2023/12/12 03:28:39;;;;;;;9.20;4.90;;;8.60;99.90;;;;;;5113464;28;20035;-64
2023/12/12 03:31:06;;;;;;;9.93;4.90;;;8.50;99.90;;;;;;5113315;28;20020;-64
2023/12/12 03:33:32;;;;;;;12.30;5.67;;;8.50;99.90;;;;;;5113208;28;20027;-65
2023/12/12 03:35:57;;;;;;;8.87;4.27;;;8.50;99.90;;;;;;5113538;28;20114;-63
2023/12/12 03:38:23;;;;;;;10.60;4.27;;;8.60;99.90;;;;;;5113474;28;20483;-63
2023/12/12 03:40:49;;;;;;;9.30;4.50;;;8.50;99.90;;;;;;5113294;28;20475;-66
2023/12/12 03:43:15;;;;;;;10.77;4.47;;;8.50;99.90;;;;;;5112976;28;20030;-64
2023/12/12 03:45:42;;;;;;;10.47;5.20;;;8.50;99.90;;;;;;5112743;28;20065;-64
2023/12/12 03:48:07;;;;;;;10.17;4.93;;;8.50;99.90;;;;;;5113129;28;20094;-66
2023/12/12 03:50:34;;;;;;;13.53;5.43;;;8.50;99.90;;;;;;5112897;28;20076;-64
2023/12/12 03:52:59;;;;;;;12.67;5.70;;;8.50;99.90;;;;;;5113100;28;20027;-67
2023/12/12 03:55:25;;;;;;;6.90;4.43;;;8.50;99.90;;;;;;5112582;28;20081;-70
2023/12/12 03:57:51;;;;;;;7.17;4.40;;;8.50;99.90;;;;;;5112809;28;20089;-65
2023/12/12 04:00:16;;;;;;;11.03;4.90;;;8.50;99.90;;;;;;5112747;28;20067;-65
2023/12/12 04:02:42;;;;;;;8.87;4.80;;;8.50;99.90;;;;;;5094792;28;20035;-65
2023/12/12 04:05:11;;;;;;;12.20;4.57;;;8.50;99.90;;;;;;5112974;28;20103;-64
2023/12/12 04:07:38;;;;;;;9.37;4.83;;;8.50;99.90;;;;;;5113220;28;20487;-65
2023/12/12 04:10:06;;;;;;;9.57;5.03;;;8.50;99.90;;;;;;5112869;28;20028;-64
2023/12/12 04:12:35;;;;;;;11.60;5.17;;;8.50;99.90;;;;;;5113125;28;20024;-64
2023/12/12 04:15:01;;;;;;;12.83;9.17;;;8.50;99.90;;;;;;5094525;28;20376;-64
2023/12/12 04:17:27;;;;;;;13.37;7.40;;;8.50;99.90;;;;;;5113128;28;20476;-64
2023/12/12 04:19:53;;;;;;;9.93;5.40;;;8.50;99.90;;;;;;5112802;28;20024;-64
2023/12/12 04:22:18;;;;;;;8.43;5.13;;;8.50;99.90;;;;;;5112932;28;20414;-63
2023/12/12 04:24:44;;;;;;;13.27;5.07;;;8.40;99.90;;;;;;5112903;28;20107;-68
2023/12/12 04:27:10;;;;;;;10.47;4.93;;;8.50;99.90;;;;;;5112799;28;20031;-66
2023/12/12 04:29:35;;;;;;;9.73;4.77;;;8.40;99.90;;;;;;5112883;28;20555;-74
2023/12/12 04:32:01;;;;;;;7.57;4.63;;;8.50;99.90;;;;;;5112970;28;20031;-64
2023/12/12 04:34:31;;;;;;;8.87;4.50;;;8.40;99.90;;;;;;5112687;28;20035;-65
2023/12/12 04:36:57;;;;;;;9.33;5.00;;;8.40;99.90;;;;;;5112723;28;20015;-67
2023/12/12 04:39:23;;;;;;;9.97;4.93;;;8.40;99.90;;;;;;5113013;28;20024;-66
2023/12/12 04:41:48;;;;;;;11.43;4.90;;;8.40;99.90;;;;;;5113526;22;20052;-68
2023/12/12 04:44:39;;;;;;;8.47;4.70;;;8.40;99.90;;;;;;5092204;28;20084;-67
2023/12/12 04:47:08;;;;;;;7.87;4.63;;;8.40;99.90;;;;;;5092856;28;20020;-67
2023/12/12 04:49:35;;;;;;;8.87;4.47;;;8.40;99.90;;;;;;5092420;28;20391;-67
2023/12/12 04:52:04;;;;;;;9.33;4.07;;;8.40;99.90;;;;;;5091814;28;20027;-67
2023/12/12 04:54:29;;;;;;;9.20;4.90;;;8.40;99.90;;;;;;5091680;28;20089;-68
2023/12/12 04:56:56;;;;;;;10.27;4.47;;;8.40;99.90;;;;;;5091683;28;20499;-67
2023/12/12 04:59:22;;;;;;;8.40;4.17;;;8.40;99.90;;;;;;5091659;28;20043;-67
2023/12/12 05:01:48;;;;;;;11.17;4.33;;;8.40;99.90;;;;;;5092848;28;20024;-68
2023/12/12 05:04:15;;;;;;;7.87;4.00;;;8.40;99.90;;;;;;5094420;28;20042;-68
2023/12/12 05:06:41;;;;;;;8.53;4.13;;;8.40;99.90;;;;;;5095429;28;20051;-68
2023/12/12 05:09:07;;;;;;;8.53;3.90;;;8.40;99.90;;;;;;5096021;28;20111;-68
2023/12/12 05:11:32;;;;;;;9.63;4.50;;;8.50;99.90;;;;;;5095591;28;20581;-68
2023/12/12 05:13:58;;;;;;;9.43;3.40;;;8.40;99.90;;;;;;5095642;28;20549;-68
2023/12/12 05:16:24;;;;;;;14.57;4.33;;;8.40;99.90;;;;;;5095743;28;20024;-68
2023/12/12 05:18:50;;;;;;;10.10;4.13;;;8.40;99.90;;;;;;5095668;28;20027;-68
2023/12/12 05:21:20;;;;;;;7.40;3.97;;;8.50;99.90;;;;;;5095746;28;20081;-68
2023/12/12 05:23:46;;;;;;;10.37;4.30;;;8.40;99.90;;;;;;5095527;28;20475;-68
2023/12/12 05:26:12;;;;;;;6.97;3.27;;;8.50;99.90;;;;;;5095621;28;20050;-67
2023/12/12 05:28:38;;;;;;;11.70;3.70;;;8.40;99.90;;;;;;5095747;28;20060;-67
2023/12/12 05:31:04;;;;;;;8.97;3.90;;;8.40;99.90;;;;;;5095489;28;20085;-67
2023/12/12 05:33:29;;;;;;;9.97;3.80;;;8.40;99.90;;;;;;5095254;28;20032;-67
2023/12/12 05:35:55;;;;;;;8.50;4.17;;;8.40;99.90;;;;;;5095463;28;20020;-67
2023/12/12 05:38:21;;;;;;;8.80;3.50;;;8.40;99.90;;;;;;5095176;28;20045;-67
2023/12/12 05:40:47;;;;;;;8.30;4.27;;;8.40;99.90;;;;;;5095208;28;20074;-67
2023/12/12 05:43:13;;;;;;;7.43;3.87;;;8.40;99.90;;;;;;5095241;28;20016;-67
2023/12/12 05:45:38;;;;;;;8.83;3.90;;;8.40;99.90;;;;;;5094944;28;20021;-68
2023/12/12 05:48:04;;;;;;;9.53;3.53;;;8.40;99.90;;;;;;5094736;28;20028;-67
2023/12/12 05:50:30;;;;;;;8.97;3.60;;;8.40;99.90;;;;;;5094916;28;20149;-67
2023/12/12 05:52:56;;;;;;;7.23;4.03;;;8.40;99.90;;;;;;5095116;28;20042;-67
2023/12/12 05:55:22;;;;;;;7.17;3.43;;;8.50;99.90;;;;;;5094874;28;20426;-67
2023/12/12 05:57:48;;;;;;;6.80;3.60;;;8.50;99.90;;;;;;5095351;28;20071;-67
2023/12/12 06:00:14;;;;;;;10.77;3.67;;;8.40;99.90;;;;;;5095306;28;20035;-67
2023/12/12 06:02:41;;;;;;;7.70;4.10;;;8.50;99.90;;;;;;5094750;28;20032;-67
2023/12/12 06:05:07;;;;;;;7.53;4.50;;;8.50;99.90;;;;;;5095491;28;20051;-67
2023/12/12 06:07:41;;;;;;;7.53;4.03;;;8.50;99.90;;;;;;5095326;28;20081;-67
2023/12/12 06:10:11;;;;;;;8.63;3.93;;;8.50;99.90;;;;;;5094887;28;20528;-67
2023/12/12 06:12:43;;;;;;;10.30;3.37;;;8.50;99.90;;;;;;5094909;28;20075;-67
2023/12/12 06:15:44;;;;;;;;;;;;;;;;;;;;;
2023/12/12 06:18:51;;;;;;;6.83;3.60;;;8.50;99.90;;;;;;5059271;28;20038;-67
2023/12/12 06:32:21;;;;;;;12.57;4.43;;;8.50;99.90;;;;;;4896706;29;20033;-67
2023/12/12 06:34:47;;;;;;;8.73;4.13;;;8.50;99.90;;;;;;4902420;29;20415;-67
2023/12/12 06:37:13;;;;;;;8.37;4.17;;;8.50;99.90;;;;;;5006913;28;20034;-67
2023/12/12 06:39:39;;;;;;;11.40;5.20;;;8.50;99.90;;;;;;5056591;28;20036;-68
2023/12/12 06:42:05;;;;;;;8.97;4.77;;;8.50;99.90;;;;;;5093891;28;20149;-68
2023/12/12 06:44:31;;;;;;;14.10;5.17;;;8.50;99.90;;;;;;5093566;28;20039;-67
2023/12/12 06:46:58;;;;;;;11.77;5.50;;;8.50;99.90;;;;;;5094086;28;20360;-67
2023/12/12 06:49:23;;;;;;;11.70;4.83;;;8.50;99.90;;;;;;5094008;28;20020;-67
2023/12/12 06:51:49;;;;;;;9.33;5.07;;;8.50;99.90;;;;;;5093908;28;20020;-67
2023/12/12 06:54:15;;;;;;;11.10;5.30;;;8.50;99.90;;;;;;5093607;28;20119;-67
2023/12/12 06:56:41;;;;;;;11.73;4.87;;;8.50;99.90;;;;;;5093178;28;20027;-67
2023/12/12 06:59:07;;;;;;;12.83;4.60;;;8.50;99.90;;;;;;5093570;28;20020;-68
2023/12/12 07:01:33;;;;;;;10.47;4.20;;;8.50;99.90;;;;;;5093358;28;20467;-67
2023/12/12 07:03:59;;;;;;;8.13;4.90;;;8.50;99.90;;;;;;5082494;28;20051;-68
2023/12/12 07:06:25;;;;;;;14.23;4.60;;;8.50;99.90;;;;;;5093134;28;20020;-67
2023/12/12 07:08:52;;;;;;;9.13;3.70;;;8.50;99.90;;;;;;5093382;28;20054;-68
2023/12/12 07:11:17;;;;;;;8.83;3.70;;;8.50;99.90;;;;;;5086852;28;20031;-67
2023/12/12 07:13:44;;;;;;;14.53;4.93;;;8.50;99.90;;;;;;5093114;28;20024;-67
2023/12/12 07:16:12;;;;;;;10.13;4.80;;;8.50;99.90;;;;;;5093568;28;20391;-73
2023/12/12 07:18:39;;;;;;;11.70;4.90;;;8.50;99.90;;;;;;5093441;28;20058;-73
2023/12/12 07:21:07;;;;;;;10.77;5.37;;;8.50;99.90;;;;;;5093423;28;20487;-74
2023/12/12 07:23:34;;;;;;;10.80;6.07;;;8.50;99.90;;;;;;5093253;28;20097;-73
2023/12/12 07:26:00;;;;;;;11.30;6.00;;;8.50;99.90;;;;;;5092883;28;20035;-73
2023/12/12 07:28:27;;;;;;;8.47;4.70;;;8.60;99.90;;;;;;5093281;28;20480;-73
2023/12/12 07:30:53;;;;;;;15.90;4.43;;;8.60;99.90;;;;;;5093401;28;20112;-73
2023/12/12 07:33:19;;;;;;;9.47;4.47;;;8.60;99.90;;;;;;5093092;28;20020;-68
2023/12/12 07:35:46;;;;;;;9.97;4.47;;;8.60;99.90;;;;;;5092641;28;20093;-73
2023/12/12 07:38:12;;;;;;;7.87;3.87;;;8.60;99.90;;;;;;5083461;28;20103;-74
2023/12/12 07:40:37;;;;;;;11.50;4.30;;;8.60;99.90;;;;;;5092527;28;20594;-73
2023/12/12 07:43:03;;;;;;;11.20;4.77;;;8.60;99.90;;;;;;5092882;28;20021;-71
2023/12/12 07:45:29;;;;;;;16.10;5.07;;;8.60;99.90;;;;;;5092798;28;20031;-67
2023/12/12 07:47:54;;;;;;;13.07;5.37;;;8.70;99.90;;;;;;5091301;28;20032;-68
2023/12/12 08:01:16;;;;;;;8.90;4.40;;;8.70;99.90;;;;;;4968390;28;20636;-68
2023/12/12 08:03:45;;;;;;;11.60;4.30;;;8.70;99.90;;;;;;4968452;28;20337;-67
2023/12/12 08:06:56;;;;;;;13.43;4.40;;;8.80;99.90;;;;;;5007721;28;20109;-67
2023/12/12 08:09:24;;;;;;;12.57;5.03;;;8.80;99.90;;;;;;5008381;28;20037;-68
2023/12/12 08:15:16;;;;;;;10.83;4.87;;;8.80;99.90;;;;;;4989534;28;20057;-68
2023/12/12 08:17:42;;;;;;;15.03;4.90;;;8.80;99.90;;;;;;4989015;28;20415;-67
2023/12/12 08:20:08;;;;;;;11.97;5.37;;;8.80;99.90;;;;;;5061382;28;20070;-67
2023/12/12 08:22:34;;;;;;;11.17;5.23;;;8.90;99.90;;;;;;5068984;28;20621;-67
2023/12/12 08:25:00;;;;;;;12.57;5.17;;;8.90;99.90;;;;;;5072120;28;20192;-67
2023/12/12 08:27:27;;;;;;;11.90;5.13;;;8.90;99.90;;;;;;5071839;28;20555;-67
2023/12/12 08:29:52;;;;;;;11.70;5.97;;;8.90;99.90;;;;;;5072414;28;20036;-67
2023/12/12 08:32:18;;;;;;;12.30;5.50;;;9.00;99.90;;;;;;5072183;28;20086;-67
2023/12/12 08:34:44;;;;;;;10.53;5.23;;;9.00;99.90;;;;;;5069536;28;20072;-67
2023/12/12 08:37:10;;;;;;;8.87;5.43;;;9.00;99.90;;;;;;5073059;28;20361;-66
2023/12/12 08:39:36;;;;;;;12.90;5.37;;;9.00;99.90;;;;;;5074556;28;20028;-66
2023/12/12 08:42:03;;;;;;;15.33;4.90;;;9.00;99.90;;;;;;5074761;28;20048;-67
2023/12/12 08:44:28;;;;;;;12.73;5.40;;;9.00;99.90;;;;;;5075081;28;20472;-66
2023/12/12 08:46:54;;;;;;;9.33;5.17;;;9.00;99.90;;;;;;5075521;28;20086;-67
2023/12/12 08:49:20;;;;;;;20.40;5.03;;;9.00;99.90;;;;;;5075700;28;20081;-67
2023/12/12 08:51:46;;;;;;;14.73;5.00;;;9.00;99.90;;;;;;5076018;28;20074;-67
2023/12/12 08:54:11;;;;;;;15.13;4.87;;;9.00;99.90;;;;;;5075204;28;20037;-67
2023/12/12 08:56:38;;;;;;;11.53;4.70;;;9.10;99.90;;;;;;5075825;28;20051;-67
2023/12/12 08:59:04;;;;;;;9.43;4.43;;;9.10;99.90;;;;;;5075669;28;20063;-67
2023/12/12 09:01:30;;;;;;;9.33;4.40;;;9.10;99.90;;;;;;5075624;28;20052;-67
2023/12/12 09:03:56;;;;;;;7.90;4.07;;;9.10;99.90;;;;;;5075685;28;20024;-67
2023/12/12 09:06:22;;;;;;;8.60;4.03;;;9.20;99.90;;;;;;5075652;28;20036;-67
2023/12/12 09:08:48;;;;;;;9.30;4.30;;;9.20;99.90;;;;;;5075454;28;20032;-67
2023/12/12 09:11:14;;;;;;;13.00;4.90;;;9.20;99.90;;;;;;5075500;28;20036;-66
2023/12/12 09:13:42;;;;;;;11.30;4.10;;;9.20;99.90;;;;;;5075362;28;20031;-67
2023/12/12 09:16:08;;;;;;;13.27;4.97;;;9.20;99.90;;;;;;5075442;28;20119;-67
2023/12/12 09:18:33;;;;;;;12.37;4.60;;;9.20;99.90;;;;;;5075503;28;20446;-68
2023/12/12 09:20:59;;;;;;;14.03;4.50;;;9.20;99.90;;;;;;5075642;28;20028;-67
2023/12/12 09:23:27;;;;;;;10.07;4.33;;;9.20;99.90;;;;;;5075975;28;20055;-67
2023/12/12 09:25:54;;;;;;;10.67;4.43;;;9.20;99.90;;;;;;5074720;28;20064;-67
2023/12/12 09:28:23;;;;;;;8.27;4.80;;;9.20;99.90;;;;;;5075478;28;20444;-67
2023/12/12 09:31:29;;;;;;;9.13;4.10;;;9.20;99.90;;;;;;5075039;28;20035;-68
2023/12/12 09:34:39;;;;;;;8.80;4.20;;;9.30;99.90;;;;;;5013607;28;20056;-67
2023/12/12 09:46:59;;;;;;;;;;;9.30;99.90;;;;;;4955101;28;20042;-67
2023/12/12 09:50:38;;;;;;;10.30;5.03;;;9.30;99.90;;;;;;5011307;28;20359;-67
2023/12/12 09:55:55;;;;;;;12.20;5.53;;;9.30;99.90;;;;;;4935191;29;20050;-67
2023/12/12 09:58:25;;;;;;;11.37;6.60;;;9.30;99.90;;;;;;4935517;29;20035;-67
2023/12/12 10:00:51;;;;;;;8.40;5.10;;;9.30;99.90;;;;;;4935630;29;20437;-68
2023/12/12 10:03:18;;;;;;;17.30;5.70;;;9.30;99.90;;;;;;5034832;28;20162;-68
2023/12/12 10:05:52;;;;;;;12.47;5.17;;;9.30;99.90;;;;;;5074906;28;20047;-67
2023/12/12 10:08:18;;;;;;;12.33;5.27;;;9.30;99.90;;;;;;5074940;28;20032;-68
2023/12/12 10:10:44;;;;;;;15.10;5.80;;;9.30;99.90;;;;;;5074783;28;20021;-68
2023/12/12 10:13:10;;;;;;;10.10;5.57;;;9.40;99.90;;;;;;5074469;28;20025;-67
2023/12/12 10:15:36;;;;;;;11.67;5.27;;;9.40;99.90;;;;;;5074550;28;20066;-68
2023/12/12 10:18:02;;;;;;;8.50;5.00;;;9.40;99.90;;;;;;5074341;28;20025;-68
2023/12/12 10:20:30;;;;;;;15.00;5.10;;;9.40;99.90;;;;;;5074504;28;20078;-69
2023/12/12 10:23:01;;;;;;;9.30;4.37;;;9.40;99.90;;;;;;5074149;28;20021;-68
2023/12/12 10:25:33;;;;;;;11.43;4.70;;;9.40;99.90;;;;;;5074013;28;20107;-67
2023/12/12 10:27:59;;;;;;;12.37;5.17;;;9.40;99.90;;;;;;5074161;28;20027;-68
2023/12/12 10:30:26;;;;;;;7.63;4.30;;;9.50;99.90;;;;;;5082500;28;20038;-68
2023/12/12 10:32:53;;;;;;;9.50;4.83;;;9.50;99.90;;;;;;5094354;28;20447;-68
2023/12/12 10:35:23;;;;;;;11.57;5.27;;;9.50;99.90;;;;;;5094063;28;20067;-67
2023/12/12 10:37:53;;;;;;;17.87;5.70;;;9.50;99.90;;;;;;5094225;28;20060;-73
2023/12/12 10:40:21;;;;;;;12.97;5.70;;;9.50;99.90;;;;;;5094329;28;20032;-73
2023/12/12 10:42:48;;;;;;;13.30;5.10;;;9.50;99.90;;;;;;5076200;28;20075;-75
2023/12/12 10:45:16;;;;;;;6.93;4.03;;;9.50;99.90;;;;;;5094157;28;20027;-73
2023/12/12 10:47:46;;;;;;;16.73;5.00;;;9.50;99.90;;;;;;5093900;28;20023;-73
2023/12/12 10:50:13;;;;;;;10.13;4.37;;;9.50;99.90;;;;;;5075823;28;20073;-73
2023/12/12 10:52:40;;;;;;;8.50;4.80;;;9.60;99.90;;;;;;5092639;28;20058;-74
2023/12/12 10:55:11;;;;;;;19.50;5.70;;;9.60;99.90;;;;;;5093353;28;20032;-74
2023/12/12 10:57:43;;;;;;;12.33;5.40;;;9.60;99.90;;;;;;5093521;28;20027;-74
2023/12/12 11:00:14;;;;;;;9.73;5.10;;;9.60;99.90;;;;;;5092378;28;20036;-67
2023/12/12 11:02:44;;;;;;;7.77;4.93;;;9.60;99.90;;;;;;5094444;28;20375;-67
2023/12/12 11:05:12;;;;;;;17.13;6.73;;;9.60;99.90;;;;;;5092963;28;20091;-67
2023/12/12 11:07:39;;;;;;;18.40;9.27;;;9.70;99.90;;;;;;5094176;28;20049;-67
2023/12/12 11:10:21;;;;;;;23.53;9.70;;;9.60;99.90;;;;;;5093774;28;20028;-67
2023/12/12 11:13:58;;;;;;;29.50;13.03;;;9.60;99.90;;;;;;5093756;28;20046;-67
2023/12/12 11:20:13;;;;;;;14.77;6.83;;;9.60;99.90;;;;;;4962513;28;20549;-67
2023/12/12 11:30:42;;;;;;;12.13;6.23;;;9.70;99.90;;;;;;4905233;29;20066;-67
2023/12/12 11:37:03;;;;;;;12.93;6.57;;;9.80;99.90;;;;;;4900799;29;20048;-67
2023/12/12 11:39:49;;;;;;;14.60;6.53;;;9.80;99.90;;;;;;4914882;29;20031;-68
2023/12/12 11:42:24;;;;;;;14.93;7.30;;;9.80;99.90;;;;;;4913945;29;20512;-67
2023/12/12 11:44:54;;;;;;;15.67;7.47;;;9.80;99.90;;;;;;5043640;28;20393;-67
2023/12/12 11:47:23;;;;;;;16.05;8.15;;;9.80;99.90;;;;;;5052651;28;20021;-67
2023/12/12 11:49:50;;;;;;;19.58;8.20;;;9.80;99.90;;;;;;5052451;28;20384;-67
2023/12/12 11:52:38;;;;;;;14.53;7.40;;;9.90;99.90;;;;;;5052500;28;20440;-69
2023/12/12 11:55:04;;;;;;;15.83;7.80;;;9.90;99.90;;;;;;5051721;28;20338;-68
2023/12/12 11:57:30;;;;;;;16.35;7.60;;;9.90;99.90;;;;;;5052305;28;20474;-68
2023/12/12 12:00:05;;;;;;;13.20;7.70;;;9.90;99.90;;;;;;5052197;28;20047;-67
2023/12/12 12:02:31;;;;;;;18.25;9.85;;;9.90;99.90;;;;;;5052324;28;20481;-68
2023/12/12 12:04:58;;;;;;;13.83;8.93;;;9.90;99.90;;;;;;5051737;28;20059;-68
2023/12/12 12:07:24;;;;;;;16.07;9.10;;;9.90;99.90;;;;;;5051896;28;20032;-68
2023/12/12 12:09:52;;;;;;;19.80;8.90;;;10.00;99.90;;;;;;5052478;28;20025;-68
2023/12/12 12:12:19;;;;;;;20.35;10.00;;;10.00;99.90;;;;;;5056607;28;20499;-67
2023/12/12 12:14:45;;;;;;;17.85;10.48;;;10.00;99.90;;;;;;5056160;28;20111;-67
2023/12/12 12:17:11;;;;;;;22.20;11.43;;;10.10;99.90;;;;;;5056852;28;20100;-67
2023/12/12 12:19:40;;;;;;;21.33;11.90;;;10.10;99.90;;;;;;5056801;28;20033;-68
2023/12/12 12:22:08;;;;;;;28.20;12.82;;;10.10;99.90;;;;;;5055974;28;20465;-67
2023/12/12 12:24:40;;;;;;;22.85;13.27;;;10.10;99.90;;;;;;5056291;28;20488;-67
2023/12/12 12:27:06;;;;;;;32.85;13.98;;;10.20;99.90;;;;;;5055847;28;20377;-67
2023/12/12 12:29:32;;;;;;;25.55;14.57;;;10.20;99.90;;;;;;5055357;28;20021;-68
2023/12/12 12:32:12;;;;;;;23.30;13.18;;;10.20;99.90;;;;;;5053615;28;20031;-67
2023/12/12 12:34:39;;;;;;;26.80;13.60;;;10.30;99.90;;;;;;5053805;28;20128;-66
2023/12/12 12:37:05;;;;;;;29.75;14.57;;;10.30;99.90;;;;;;5056152;28;20078;-67
2023/12/12 12:39:42;;;;;;;23.92;13.60;;;10.30;99.90;;;;;;5055864;28;20419;-67
2023/12/12 12:42:08;;;;;;;18.88;9.85;;;10.30;99.90;;;;;;5071265;28;20127;-67
2023/12/12 12:44:36;;;;;;;14.00;7.80;;;10.40;99.90;;;;;;5097084;28;20020;-67
2023/12/12 12:47:02;;;;;;;23.60;7.85;;;10.40;99.90;;;;;;5097062;28;20107;-67
2023/12/12 12:49:27;;;;;;;12.48;7.82;;;10.40;99.90;;;;;;5095310;28;20119;-67
2023/12/12 12:56:03;;;;;;;17.35;12.68;;;10.40;99.90;;;;;;5013823;28;20044;-67
2023/12/12 12:58:49;;;;;;;14.77;8.82;;;10.40;99.90;;;;;;5013357;28;20306;-68
2023/12/12 13:02:05;;;;;;;14.65;8.88;;;10.30;99.90;;;;;;4955755;29;20046;-67
2023/12/12 13:07:52;;;;;;;15.00;8.23;;;10.30;99.90;;;;;;4974317;28;20089;-67
2023/12/12 13:11:14;;;;;;;15.10;8.77;;;10.30;99.90;;;;;;5005915;28;20061;-65
2023/12/12 13:14:36;;;;;;;13.13;8.07;;;10.30;99.90;;;;;;4936094;29;20050;-65
2023/12/12 13:16:56;;;;;;;14.68;7.80;;;10.30;99.90;;;;;;4948158;28;20129;-65
2023/12/12 13:19:26;;;;;;;19.98;8.10;;;10.30;99.90;;;;;;5095370;28;20016;-66
2023/12/12 13:21:55;;;;;;;13.73;7.88;;;10.30;99.90;;;;;;5094835;28;20020;-66
2023/12/12 13:24:22;;;;;;;13.73;8.18;;;10.30;99.90;;;;;;5095221;28;20391;-66
2023/12/12 13:26:50;;;;;;;20.50;7.57;;;10.20;99.90;;;;;;5094306;28;20441;-66
2023/12/12 13:29:17;;;;;;;13.35;7.50;;;10.20;99.90;;;;;;5095232;28;20123;-65
2023/12/12 13:31:43;;;;;;;11.25;6.82;;;10.20;99.90;;;;;;5095662;28;20035;-66
2023/12/12 13:34:08;;;;;;;14.55;7.07;;;10.20;99.90;;;;;;5067863;28;20036;-66
2023/12/12 13:36:35;;;;;;;13.43;6.40;;;10.20;99.90;;;;;;5063137;28;20083;-66
2023/12/12 13:39:03;;;;;;;11.93;6.63;;;10.20;99.90;;;;;;5074815;28;20385;-65
2023/12/12 13:41:29;;;;;;;11.02;5.90;;;10.20;99.90;;;;;;5076645;28;20075;-66
2023/12/12 13:43:55;;;;;;;17.08;6.68;;;10.20;99.90;;;;;;5095042;28;20032;-65
2023/12/12 13:46:20;;;;;;;15.48;6.50;;;10.20;99.90;;;;;;5094113;28;20028;-65
2023/12/12 13:48:46;;;;;;;16.63;6.93;;;10.20;99.90;;;;;;5094150;28;20058;-67
2023/12/12 13:51:12;;;;;;;16.38;7.22;;;10.20;99.90;;;;;;5093187;28;20024;-66
2023/12/12 13:53:38;;;;;;;17.63;6.97;;;10.20;99.90;;;;;;5093878;28;20020;-67
2023/12/12 13:56:04;;;;;;;11.60;7.50;;;10.20;99.90;;;;;;5094096;28;20040;-67